Thompson, ND (58278)

1:27 PM CST on February 11, 2016 (GMT -0600)
APRSWXNET | | Change Station
CLOSE
Current Station
Personal Weather Station
Location: Grand Forks Air Force Base, ND
Elevation: 846 ft
Nearby Weather Stations

Elev 846 ft 47.89 °N, 97.16 °W | Updated 33 minutes ago

Mostly Cloudy
Mostly Cloudy
13 °F
Feels Like 6 °F
N
4
Wind Variable Wind from WSW
Gusts 5.0 mph

Today
High -- | Low -- °F
--% Chance of Precip.
Yesterday
High -- | Low -- °F
Precip. -- in
Pressure 30.30 in
Visibility 10.0 miles
Clouds Mostly Cloudy 3500 ft
Overcast 4700 ft
Windchill 6 °F
Dew Point 7 °F
Humidity 75%
Rainfall in
Snow Depth Not available.
7:41 AM 5:44 PM
Waxing Crescent, 14% visible
METAR KGFK 111853Z 23007KT 10SM BKN035 OVC047 M11/M16 A3023 RMK AO2 SLP261 T11061156 $
Pressure 30.30 in
Visibility 10.0 miles
Clouds Mostly Cloudy 3500 ft
Overcast 4700 ft
Windchill 6 °F
Dew Point 7 °F
Humidity 75%
Rainfall in
Snow Depth Not available.
7:41 AM 5:44 PM
Waxing Crescent, 14% visible
METAR KGFK 111853Z 23007KT 10SM BKN035 OVC047 M11/M16 A3023 RMK AO2 SLP261 T11061156 $

10-Day Weather Forecast

Almanac

Astronomy

Feb. 11, 2016 Rise Set
Actual Time
Civil Twilight
Nautical Twilight
Astronomical Twilight
Moon
Length of Visible Light
Length of Day
Tomorrow will be .
, % of the Moon is Illuminated

Today's Extremes

State Highs State Lows

Community

WunderPhotos

Upload Photos

1,892,142 photos uploaded!

WunderBlog® & News

Nearby

Air Quality

  Air Quality AQ Index Pollutant
Not available.

Snow Depth

Station Depth Elevation

Earthquake Activity

City Distance Mag. Time & Date
Minimum magnitude displayed is 2.5.

Coastal Water Temperatures

Place Temperature

Stations

Nearby Weather Stations

Station Location Temp. Windchill Dew Point Humidity Wind Precip. Elev Updated Type
                   

Watches & Warnings

There are currently no watches in effect.